createdAt,value
2019-02-15T00:00:36.027Z,7.33
2019-02-15T00:03:10.503Z,8.13
2019-02-15T00:05:46.499Z,7.37
2019-02-15T00:08:20.543Z,11.90
2019-02-15T00:10:56.298Z,9.53
2019-02-15T00:13:30.307Z,5.93
2019-02-15T00:16:04.924Z,4.60
2019-02-15T00:18:58.984Z,5.40
2019-02-15T00:21:40.267Z,4.83
2019-02-15T00:24:15.074Z,6.60
2019-02-15T00:26:49.512Z,4.87
2019-02-15T00:29:24.145Z,5.27
2019-02-15T00:31:57.677Z,6.40
2019-02-15T00:34:31.917Z,9.63
2019-02-15T00:37:06.278Z,8.40
2019-02-15T00:39:44.337Z,8.63
2019-02-15T00:42:17.763Z,7.70
2019-02-15T00:44:51.699Z,7.30
2019-02-15T00:47:46.948Z,10.77
2019-02-15T00:50:35.101Z,9.10
2019-02-15T00:53:37.904Z,10.97
2019-02-15T00:56:32.692Z,8.93
2019-02-15T00:59:33.583Z,8.77
2019-02-15T01:02:19.172Z,7.70
2019-02-15T01:05:04.910Z,8.53
2019-02-15T01:08:13.463Z,9.00
2019-02-15T01:11:19.505Z,6.47
2019-02-15T01:13:53.363Z,8.33
2019-02-15T01:16:26.873Z,11.13
2019-02-15T01:19:01.507Z,7.70
2019-02-15T01:21:35.011Z,8.10
2019-02-15T01:24:08.932Z,7.03
2019-02-15T01:26:47.365Z,8.07
2019-02-15T01:29:44.134Z,7.17
2019-02-15T01:32:46.177Z,7.77
2019-02-15T01:35:43.459Z,6.80
2019-02-15T01:38:37.339Z,6.83
2019-02-15T01:41:25.186Z,7.80
2019-02-15T01:44:23.139Z,7.33
2019-02-15T01:47:20.775Z,6.73
2019-02-15T01:49:54.322Z,8.07
2019-02-15T01:52:30.773Z,8.10
2019-02-15T01:55:03.951Z,9.83
2019-02-15T01:57:39.047Z,8.40
2019-02-15T02:00:17.550Z,6.40
2019-02-15T02:02:51.553Z,6.13
2019-02-15T02:05:25.310Z,6.13
2019-02-15T02:07:59.316Z,6.47
2019-02-15T02:10:32.893Z,6.80
2019-02-15T02:13:09.407Z,6.47
2019-02-15T02:15:42.851Z,5.70
2019-02-15T02:18:17.071Z,6.80
2019-02-15T02:20:50.560Z,7.37
2019-02-15T02:23:24.729Z,6.60
2019-02-15T02:25:59.748Z,6.23
2019-02-15T02:28:36.287Z,7.43
2019-02-15T02:31:13.626Z,6.17
2019-02-15T02:33:49.037Z,5.60
2019-02-15T02:36:26.398Z,5.80
2019-02-15T02:39:01.223Z,5.80
2019-02-15T02:41:38.371Z,5.60
2019-02-15T02:44:13.360Z,8.17
2019-02-15T02:46:49.845Z,6.70
2019-02-15T02:49:24.031Z,5.63
2019-02-15T02:51:59.978Z,5.63
2019-02-15T02:54:33.788Z,5.70
2019-02-15T02:57:07.900Z,5.87
2019-02-15T02:59:41.802Z,6.27
2019-02-15T03:02:15.426Z,6.53
2019-02-15T03:04:49.973Z,6.40
2019-02-15T03:07:23.755Z,4.90
2019-02-15T03:09:57.550Z,5.13
2019-02-15T03:12:33.839Z,4.17
2019-02-15T03:15:07.941Z,4.40
2019-02-15T03:17:41.532Z,3.30
2019-02-15T03:20:15.441Z,3.97
2019-02-15T03:22:51.355Z,4.53
2019-02-15T03:25:28.104Z,4.00
2019-02-15T03:28:01.582Z,4.90
2019-02-15T03:30:36.158Z,4.33
2019-02-15T03:33:09.913Z,4.50
2019-02-15T03:35:56.695Z,4.73
2019-02-15T03:38:47.909Z,4.07
2019-02-15T03:41:34.137Z,4.80
2019-02-15T03:44:07.745Z,4.80
2019-02-15T03:46:41.869Z,4.70
2019-02-15T03:49:15.481Z,5.13
2019-02-15T03:51:49.157Z,5.70
2019-02-15T03:54:25.006Z,5.30
2019-02-15T03:56:58.558Z,6.70
2019-02-15T03:59:34.519Z,5.50
2019-02-15T04:02:12.935Z,4.73
2019-02-15T04:04:46.738Z,4.43
2019-02-15T04:07:20.942Z,4.70
2019-02-15T04:09:54.895Z,4.73
2019-02-15T04:12:28.827Z,4.80
2019-02-15T04:15:02.413Z,5.10
2019-02-15T04:17:36.235Z,5.20
2019-02-15T04:20:10.301Z,5.40
2019-02-15T04:22:43.992Z,4.80
2019-02-15T04:25:17.535Z,5.07
2019-02-15T04:27:52.223Z,7.80
2019-02-15T04:30:25.988Z,29.97
2019-02-15T04:33:02.419Z,21.70
2019-02-15T04:35:35.943Z,9.70
2019-02-15T04:38:09.887Z,7.40
2019-02-15T04:40:44.508Z,6.60
2019-02-15T04:43:19.500Z,10.53
2019-02-15T04:45:52.858Z,8.07
2019-02-15T04:48:28.532Z,6.33
2019-02-15T04:51:03.750Z,7.20
2019-02-15T04:53:37.539Z,6.93
2019-02-15T04:56:11.004Z,7.33
2019-02-15T04:58:45.410Z,6.20
2019-02-15T05:01:19.112Z,7.57
2019-02-15T05:03:53.247Z,7.33
2019-02-15T05:06:26.959Z,6.93
2019-02-15T05:09:01.027Z,7.03
2019-02-15T05:11:35.035Z,6.30
2019-02-15T05:14:09.361Z,7.00
2019-02-15T05:16:43.455Z,5.37
2019-02-15T05:19:17.404Z,8.07
2019-02-15T05:21:50.895Z,7.30
2019-02-15T05:24:25.021Z,7.63
2019-02-15T05:26:58.735Z,8.73
2019-02-15T05:29:35.865Z,5.47
2019-02-15T05:32:11.739Z,8.50
2019-02-15T05:34:46.778Z,7.47
2019-02-15T05:37:20.939Z,9.07
2019-02-15T05:39:55.433Z,10.00
2019-02-15T05:42:29.158Z,7.80
2019-02-15T05:45:04.452Z,9.17
2019-02-15T05:47:38.208Z,8.77
2019-02-15T05:50:12.280Z,11.73
2019-02-15T05:52:46.185Z,8.73
2019-02-15T05:55:20.923Z,12.03
2019-02-15T05:57:54.826Z,9.00
2019-02-15T06:00:37.290Z,9.67
2019-02-15T06:03:18.398Z,11.43
2019-02-15T06:05:55.394Z,10.40
2019-02-15T06:08:31.374Z,9.93
2019-02-15T06:11:07.801Z,9.10
2019-02-15T06:13:40.847Z,9.57
2019-02-15T06:16:14.953Z,12.23
2019-02-15T06:18:51.261Z,12.17
2019-02-15T06:21:25.391Z,12.13
2019-02-15T06:24:01.831Z,8.50
2019-02-15T06:26:36.310Z,9.07
2019-02-15T06:29:10.494Z,12.37
2019-02-15T06:31:45.247Z,13.63
2019-02-15T06:34:21.867Z,14.73
2019-02-15T06:36:57.541Z,13.73
2019-02-15T06:39:31.326Z,14.60
2019-02-15T06:42:06.218Z,12.47
2019-02-15T06:44:40.839Z,13.70
2019-02-15T06:47:15.759Z,15.70
2019-02-15T06:49:50.143Z,11.67
2019-02-15T06:52:23.897Z,13.27
2019-02-15T06:55:01.326Z,12.07
2019-02-15T06:57:35.738Z,18.17
2019-02-15T07:00:29.214Z,12.17
2019-02-15T07:03:24.008Z,15.53
2019-02-15T07:05:58.958Z,13.03
2019-02-15T07:08:34.390Z,15.20
2019-02-15T07:11:08.848Z,12.17
2019-02-15T07:13:44.946Z,12.57
2019-02-15T07:16:19.358Z,13.73
2019-02-15T07:18:54.065Z,13.60
2019-02-15T07:21:28.161Z,11.73
2019-02-15T07:24:07.984Z,12.13
2019-02-15T07:26:45.406Z,13.77
2019-02-15T07:29:26.587Z,12.50
2019-02-15T07:32:06.835Z,14.23
2019-02-15T07:35:03.533Z,10.83
2019-02-15T07:37:39.730Z,16.33
2019-02-15T07:40:14.274Z,13.07
2019-02-15T07:42:47.727Z,13.70
2019-02-15T07:45:28.643Z,11.93
2019-02-15T07:48:08.029Z,10.53
2019-02-15T07:50:49.864Z,10.97
2019-02-15T07:53:29.459Z,10.07
2019-02-15T07:56:05.439Z,9.00
2019-02-15T07:58:40.255Z,7.73
2019-02-15T08:01:16.151Z,11.97
2019-02-15T08:04:03.278Z,9.07
2019-02-15T08:06:37.917Z,10.67
2019-02-15T08:09:14.887Z,9.83
2019-02-15T08:11:50.750Z,10.60
2019-02-15T08:14:31.951Z,10.87
2019-02-15T08:17:14.508Z,10.10
2019-02-15T08:19:49.289Z,9.90
2019-02-15T08:22:25.341Z,16.03
2019-02-15T08:24:59.854Z,9.37
2019-02-15T08:27:45.497Z,7.17
2019-02-15T08:30:22.047Z,8.00
2019-02-15T08:32:57.820Z,10.33
2019-02-15T08:35:31.933Z,10.73
2019-02-15T08:38:07.537Z,7.23
2019-02-15T08:40:41.227Z,9.13
2019-02-15T08:43:17.573Z,10.17
2019-02-15T08:46:00.518Z,10.27
2019-02-15T08:48:45.701Z,10.67
2019-02-15T08:51:19.517Z,7.50
2019-02-15T08:53:54.625Z,5.50
2019-02-15T08:56:33.528Z,7.07
2019-02-15T08:59:08.439Z,8.03
2019-02-15T09:01:43.259Z,6.20
2019-02-15T09:04:18.647Z,4.33
2019-02-15T09:06:53.698Z,4.23
2019-02-15T09:09:28.234Z,4.03
2019-02-15T09:12:01.485Z,4.37
2019-02-15T09:14:37.787Z,3.97
2019-02-15T09:17:11.938Z,3.40
2019-02-15T09:19:48.830Z,4.60
2019-02-15T09:22:24.915Z,3.70
2019-02-15T09:25:01.050Z,6.17
2019-02-15T09:27:58.763Z,3.57
2019-02-15T09:30:32.993Z,7.60
2019-02-15T09:33:09.158Z,4.90
2019-02-15T09:35:43.770Z,3.33
2019-02-15T09:38:18.081Z,4.00
2019-02-15T09:40:53.117Z,4.90
2019-02-15T09:43:29.548Z,4.70
2019-02-15T09:46:04.356Z,3.93
2019-02-15T09:48:39.607Z,5.20
2019-02-15T09:51:13.909Z,3.77
2019-02-15T09:53:50.218Z,6.20
2019-02-15T09:56:25.653Z,5.97
2019-02-15T09:59:01.777Z,3.60
2019-02-15T10:01:39.234Z,3.73
2019-02-15T10:04:14.867Z,4.13
2019-02-15T10:07:02.512Z,3.80
2019-02-15T10:09:36.821Z,2.83
2019-02-15T10:12:10.876Z,3.57
2019-02-15T10:14:45.399Z,3.20
2019-02-15T10:17:21.949Z,5.07
2019-02-15T10:19:56.092Z,4.73
2019-02-15T10:22:31.697Z,4.30
2019-02-15T10:25:06.263Z,5.40
2019-02-15T10:27:42.087Z,3.87
2019-02-15T10:30:16.390Z,3.97
2019-02-15T10:32:51.797Z,6.20
2019-02-15T10:35:25.817Z,5.67
2019-02-15T10:38:04.099Z,5.20
2019-02-15T10:40:39.253Z,4.70
2019-02-15T10:43:14.026Z,3.87
2019-02-15T10:45:50.201Z,4.03
2019-02-15T10:48:28.389Z,4.17
2019-02-15T10:51:02.566Z,4.10
2019-02-15T10:53:37.909Z,3.83
2019-02-15T10:56:12.637Z,3.83
2019-02-15T10:58:53.482Z,3.40
2019-02-15T11:01:30.212Z,3.37
2019-02-15T11:04:06.073Z,5.13
2019-02-15T11:06:42.159Z,5.53
2019-02-15T11:09:32.855Z,2.90
2019-02-15T11:12:08.875Z,3.10
2019-02-15T11:14:44.807Z,3.80
2019-02-15T11:17:26.837Z,4.40
2019-02-15T11:20:02.234Z,5.53
2019-02-15T11:22:37.299Z,5.83
2019-02-15T11:25:14.325Z,5.23
2019-02-15T11:27:50.184Z,5.70
2019-02-15T11:30:27.997Z,4.80
2019-02-15T11:33:03.172Z,5.17
2019-02-15T11:35:39.067Z,5.10
2019-02-15T11:38:13.881Z,5.53
2019-02-15T11:40:49.745Z,7.03
2019-02-15T11:43:26.154Z,4.63
2019-02-15T11:46:01.253Z,5.10
2019-02-15T11:48:35.655Z,6.70
2019-02-15T11:51:11.023Z,5.27
2019-02-15T11:53:46.481Z,6.43
2019-02-15T11:56:22.020Z,5.67
2019-02-15T11:58:57.880Z,4.40
2019-02-15T12:01:34.762Z,4.30
2019-02-15T12:04:10.150Z,5.30
2019-02-15T12:06:50.964Z,4.57
2019-02-15T12:09:25.559Z,6.37
2019-02-15T12:12:00.044Z,5.60
2019-02-15T12:14:35.398Z,7.50
2019-02-15T12:17:12.005Z,5.50
2019-02-15T12:20:04.150Z,3.90
2019-02-15T12:22:45.112Z,6.63
2019-02-15T12:25:21.199Z,7.93
2019-02-15T12:27:56.183Z,5.47
2019-02-15T12:30:32.887Z,4.77
2019-02-15T12:33:12.561Z,4.60
2019-02-15T12:35:48.069Z,3.87
2019-02-15T12:38:24.983Z,4.90
2019-02-15T12:40:59.980Z,3.17
2019-02-15T12:43:44.571Z,4.10
2019-02-15T12:46:18.919Z,5.50
2019-02-15T12:48:54.754Z,6.53
2019-02-15T12:51:32.202Z,3.43
2019-02-15T12:54:09.450Z,4.30
2019-02-15T12:56:44.299Z,4.50
2019-02-15T12:59:20.149Z,3.17
2019-02-15T13:01:54.755Z,3.40
2019-02-15T13:04:30.708Z,4.60
2019-02-15T13:07:07.682Z,3.30
2019-02-15T13:09:44.667Z,2.77
2019-02-15T13:12:21.957Z,4.90
2019-02-15T13:15:01.532Z,3.93
2019-02-15T13:17:36.854Z,6.00
2019-02-15T13:20:11.690Z,5.23
2019-02-15T13:22:54.655Z,4.90
2019-02-15T13:25:39.305Z,6.10
2019-02-15T13:28:14.665Z,3.23
2019-02-15T13:30:54.707Z,4.97
2019-02-15T13:33:31.681Z,4.30
2019-02-15T13:36:06.808Z,5.03
2019-02-15T13:38:41.312Z,5.67
2019-02-15T13:41:15.953Z,4.67
2019-02-15T13:43:50.029Z,5.77
2019-02-15T13:46:25.779Z,3.43
2019-02-15T13:49:01.018Z,4.40
2019-02-15T13:51:35.409Z,3.70
2019-02-15T13:54:10.456Z,5.90
2019-02-15T13:56:47.202Z,4.07
2019-02-15T13:59:21.943Z,3.27
2019-02-15T14:01:56.829Z,3.03
2019-02-15T14:04:32.203Z,8.23
2019-02-15T14:07:19.023Z,7.43
2019-02-15T14:09:53.186Z,4.47
2019-02-15T14:12:30.904Z,5.40
2019-02-15T14:15:05.761Z,4.33
2019-02-15T14:17:45.354Z,4.00
2019-02-15T14:20:16.486Z,2.80
2019-02-15T14:22:51.445Z,5.63
2019-02-15T14:25:29.357Z,3.77
2019-02-15T14:28:05.143Z,3.40
2019-02-15T14:30:40.333Z,3.90
2019-02-15T14:33:14.943Z,4.87
2019-02-15T14:35:51.497Z,4.40
2019-02-15T14:38:26.645Z,2.80
2019-02-15T14:41:01.355Z,4.60
2019-02-15T14:43:39.002Z,3.80
2019-02-15T14:46:13.785Z,4.37
2019-02-15T14:48:48.164Z,4.43
2019-02-15T14:51:23.043Z,5.60
2019-02-15T14:54:02.844Z,3.90
2019-02-15T14:56:38.954Z,3.97
2019-02-15T14:59:15.053Z,3.93
2019-02-15T15:01:50.052Z,6.37
2019-02-15T15:04:24.368Z,3.20
2019-02-15T15:06:59.034Z,4.80
2019-02-15T15:09:35.069Z,3.80
2019-02-15T15:12:09.010Z,4.30
2019-02-15T15:14:44.003Z,3.60
2019-02-15T15:17:19.849Z,4.90
2019-02-15T15:19:57.143Z,4.03
2019-02-15T15:22:32.432Z,5.20
2019-02-15T15:25:08.605Z,4.73
2019-02-15T15:27:43.532Z,6.97
2019-02-15T15:30:19.880Z,4.60
2019-02-15T15:32:54.983Z,4.70
2019-02-15T15:35:29.901Z,5.67
2019-02-15T15:38:04.718Z,7.97
2019-02-15T15:40:38.611Z,5.00
2019-02-15T15:43:12.799Z,6.73
2019-02-15T15:45:51.081Z,4.13
2019-02-15T15:48:25.099Z,4.00
2019-02-15T15:51:18.015Z,6.73
2019-02-15T15:53:56.526Z,3.37
2019-02-15T15:56:30.805Z,5.33
2019-02-15T15:59:05.259Z,3.50
2019-02-15T16:01:40.072Z,4.60
2019-02-15T16:04:15.230Z,5.27
2019-02-15T16:06:51.195Z,6.57
2019-02-15T16:09:25.576Z,6.90
2019-02-15T16:12:17.667Z,7.77
2019-02-15T16:14:53.304Z,6.00
2019-02-15T16:17:30.982Z,5.53
2019-02-15T16:20:15.784Z,5.67
2019-02-15T16:22:50.176Z,6.47
2019-02-15T16:25:24.541Z,5.10
2019-02-15T16:27:59.371Z,3.67
2019-02-15T16:30:33.978Z,6.60
2019-02-15T16:33:10.510Z,7.60
2019-02-15T16:35:44.529Z,5.73
2019-02-15T16:38:20.040Z,6.90
2019-02-15T16:40:58.051Z,9.37
2019-02-15T16:43:32.781Z,6.63
2019-02-15T16:46:08.052Z,6.53
2019-02-15T16:48:43.857Z,7.27
2019-02-15T16:51:18.384Z,5.23
2019-02-15T16:53:55.417Z,5.33
2019-02-15T16:56:29.375Z,9.83
2019-02-15T16:59:04.534Z,7.50
2019-02-15T17:01:43.486Z,9.73
2019-02-15T17:04:17.876Z,11.77
2019-02-15T17:06:51.607Z,13.97
2019-02-15T17:09:26.754Z,9.20
2019-02-15T17:12:02.021Z,10.53
2019-02-15T17:14:36.857Z,7.60
2019-02-15T17:17:10.733Z,9.83
2019-02-15T17:19:44.734Z,10.53
2019-02-15T17:22:19.377Z,12.27
2019-02-15T17:24:54.067Z,18.50
2019-02-15T17:27:29.543Z,14.77
2019-02-15T17:30:04.731Z,14.73
2019-02-15T17:32:39.234Z,15.43
2019-02-15T17:35:14.489Z,15.50
2019-02-15T17:37:49.814Z,14.17
2019-02-15T17:40:25.254Z,17.30
2019-02-15T17:42:59.398Z,15.43
2019-02-15T17:45:35.335Z,12.60
2019-02-15T17:48:14.092Z,11.37
2019-02-15T17:50:49.552Z,12.33
2019-02-15T17:53:24.264Z,12.40
2019-02-15T17:56:01.470Z,11.10
2019-02-15T17:58:38.288Z,8.93
2019-02-15T18:01:13.396Z,13.17
2019-02-15T18:03:49.251Z,14.00
2019-02-15T18:06:24.043Z,11.13
2019-02-15T18:08:58.368Z,14.17
2019-02-15T18:11:32.349Z,14.03
2019-02-15T18:14:07.183Z,14.17
2019-02-15T18:16:43.069Z,16.27
2019-02-15T18:19:19.033Z,16.80
2019-02-15T18:21:53.275Z,15.97
2019-02-15T18:24:28.862Z,14.57
2019-02-15T18:27:08.977Z,9.73
2019-02-15T18:29:47.377Z,15.07
2019-02-15T18:32:22.281Z,18.80
2019-02-15T18:34:56.779Z,21.67
2019-02-15T18:37:31.164Z,28.20
2019-02-15T18:40:07.735Z,21.93
2019-02-15T18:42:42.633Z,21.07
2019-02-15T18:45:20.403Z,21.20
2019-02-15T18:47:55.511Z,21.43
2019-02-15T18:50:33.403Z,19.77
2019-02-15T18:53:08.728Z,21.57
2019-02-15T18:55:45.442Z,24.70
2019-02-15T18:58:21.134Z,27.20
2019-02-15T19:00:54.939Z,25.73
2019-02-15T19:03:29.715Z,27.97
2019-02-15T19:06:04.496Z,40.60
2019-02-15T19:08:39.030Z,33.60
2019-02-15T19:11:15.770Z,33.33
2019-02-15T19:13:51.044Z,34.13
2019-02-15T19:16:25.881Z,35.13
2019-02-15T19:19:00.043Z,28.40
2019-02-15T19:21:35.114Z,26.27
2019-02-15T19:24:09.862Z,22.50
2019-02-15T19:26:44.714Z,25.50
2019-02-15T19:29:19.557Z,25.17
2019-02-15T19:31:55.017Z,28.70
2019-02-15T19:34:30.418Z,20.77
2019-02-15T19:37:04.846Z,24.90
2019-02-15T19:39:39.613Z,25.50
2019-02-15T19:42:18.851Z,24.60
2019-02-15T19:44:54.045Z,20.83
2019-02-15T19:47:28.041Z,20.20
2019-02-15T19:50:03.175Z,18.40
2019-02-15T19:52:40.966Z,17.67
2019-02-15T19:55:16.131Z,14.87
2019-02-15T19:57:50.588Z,16.03
2019-02-15T20:00:25.879Z,16.77
2019-02-15T20:03:00.968Z,19.37
2019-02-15T20:05:35.948Z,22.13
2019-02-15T20:08:11.061Z,15.73
2019-02-15T20:10:46.538Z,18.30
2019-02-15T20:13:20.986Z,18.00
2019-02-15T20:15:55.247Z,19.93
2019-02-15T20:18:30.207Z,21.07
2019-02-15T20:21:04.468Z,23.80
2019-02-15T20:23:39.224Z,23.27
2019-02-15T20:26:14.934Z,18.70
2019-02-15T20:28:48.698Z,19.60
2019-02-15T20:31:23.652Z,25.10
2019-02-15T20:33:57.918Z,24.17
2019-02-15T20:36:32.413Z,24.90
2019-02-15T20:39:07.603Z,22.77
2019-02-15T20:41:44.217Z,19.27
2019-02-15T20:44:19.797Z,23.40
2019-02-15T20:46:54.117Z,20.67
2019-02-15T20:49:38.804Z,22.73
2019-02-15T20:52:16.242Z,19.67
2019-02-15T20:54:53.644Z,20.20
2019-02-15T20:57:28.654Z,22.33
2019-02-15T21:00:03.479Z,12.33
2019-02-15T21:02:38.407Z,18.13
2019-02-15T21:05:14.181Z,9.23
2019-02-15T21:07:49.010Z,10.97
2019-02-15T21:10:24.852Z,10.27
2019-02-15T21:13:00.018Z,14.40
2019-02-15T21:15:34.596Z,5.23
2019-02-15T21:18:09.043Z,8.13
2019-02-15T21:20:43.178Z,5.03
2019-02-15T21:23:17.455Z,16.83
2019-02-15T21:25:51.873Z,16.00
2019-02-15T21:28:26.933Z,13.40
2019-02-15T21:31:03.621Z,12.23
2019-02-15T21:33:37.899Z,12.23
2019-02-15T21:36:11.630Z,12.93
2019-02-15T21:38:46.610Z,13.33
2019-02-15T21:41:20.893Z,14.07
2019-02-15T21:43:54.605Z,10.03
2019-02-15T21:46:28.592Z,10.43
2019-02-15T21:49:03.417Z,9.13
2019-02-15T21:51:37.816Z,12.87
2019-02-15T21:54:12.175Z,11.13
2019-02-15T21:56:49.943Z,14.63
2019-02-15T21:59:24.294Z,12.53
2019-02-15T22:02:00.181Z,11.40
2019-02-15T22:04:34.936Z,14.27
2019-02-15T22:07:09.203Z,12.67
2019-02-15T22:09:43.050Z,13.20
2019-02-15T22:12:17.374Z,12.27
2019-02-15T22:14:52.042Z,11.60
2019-02-15T22:17:27.951Z,10.27
2019-02-15T22:20:02.026Z,9.83
2019-02-15T22:22:36.273Z,11.90
2019-02-15T22:25:11.999Z,10.30
2019-02-15T22:27:45.691Z,10.17
2019-02-15T22:30:20.547Z,9.67
2019-02-15T22:32:55.289Z,8.27
2019-02-15T22:35:32.817Z,10.93
2019-02-15T22:38:06.883Z,10.47
2019-02-15T22:40:43.182Z,11.33
2019-02-15T22:43:22.225Z,10.37
2019-02-15T22:45:56.609Z,9.80
2019-02-15T22:48:31.198Z,6.10
2019-02-15T22:51:05.653Z,5.20
2019-02-15T22:53:39.937Z,7.33
2019-02-15T22:56:14.031Z,8.37
2019-02-15T22:58:50.846Z,9.57
2019-02-15T23:01:25.037Z,8.83
2019-02-15T23:03:59.075Z,7.23
2019-02-15T23:06:33.983Z,8.80
2019-02-15T23:09:15.074Z,8.77
2019-02-15T23:11:48.987Z,11.93
2019-02-15T23:14:22.793Z,13.10
2019-02-15T23:16:57.118Z,13.93
2019-02-15T23:19:31.539Z,21.40
2019-02-15T23:22:06.754Z,14.90
2019-02-15T23:24:40.739Z,12.40
2019-02-15T23:27:14.770Z,13.73
2019-02-15T23:29:48.503Z,16.37
2019-02-15T23:32:22.851Z,11.10
2019-02-15T23:34:56.399Z,11.53
2019-02-15T23:37:31.055Z,10.47
2019-02-15T23:40:04.898Z,12.47
2019-02-15T23:42:39.192Z,12.00
2019-02-15T23:45:13.167Z,12.30
2019-02-15T23:47:47.330Z,12.87
2019-02-15T23:50:21.673Z,10.23
2019-02-15T23:52:56.627Z,11.90
2019-02-15T23:55:33.207Z,11.07
2019-02-15T23:58:07.492Z,10.33
